Grafton Airport
YGFN : now visible

Aeroporto :











RITROVATECI SU...

 
LOGIN :

Iscrizione | Disclaimer

   EN    FR    IT 

 









Sommario :    VFR   VFR Marginale   IFR   IFR Intensivo   IFR Molto Intensivo
Visibilità : 
Base nubi : 
>= 8 km
>= 3000ft
5 / 8 km
1000 / 3000 ft
1500m / 5 km
500 / 1000 ft
800 / 1500m
200 / 500 ft
< 800m
< 200 ft
Simboli :   Temporali  Nebbia  Neve Forte  Precipitazioni Forti  Vento > 20 kt






- Altitudine del aeroporto : 110 ft
- Codice IATA : GFN


YGFN - Grafton

ULTIMO METAR :
  • 312031Z AUTO 00000KT 4000 // SCT001 11/11 Q1017

METARs OBSOLETI :
  • 312000Z AUTO 00000KT 0900 // BKN001 11/11 Q1017
  • 311930Z AUTO 00000KT 0250 // OVC001 11/11 Q1017
  • 311900Z AUTO 36004KT 0800 // OVC002 11/11 Q1017
  • 311830Z AUTO 00000KT 1900 // OVC002 11/11 Q1016
  • 311800Z AUTO 00000KT 0600 // OVC001 11/11 Q1016

TAF N/A
FIR YBBB / Oceania



MetMap, La meteo Aeronautica in un colpo d'occhio ! - Copyright ORBIFLY Dicembre 2007 - Disclaimer

ORBIFLY MET'MAP TEAM :

Programmazione e sviluppo : Alexandra Zaïnal
Concezione : Baudouin d'Aumeries
Aiuto per la programmazione : Marc-Olivier Méhu
Supporto tecnico e logistico : Manuel Goepfert
Aiuto per la traduzione : Arnaldo La Scala

Contatto : metmap@orbifly.com




FONTI E CREDITI :

   NOAA       Earth
Advisory